sensor_id;sensor_type;location;lat;lon;timestamp;P1;durP1;ratioP1;P2;durP2;ratioP2
66886;SDS011;67239;51.680;5.976;2023-04-24T00:02:00;3.65;;;2.63;;
66886;SDS011;67239;51.680;5.976;2023-04-24T00:04:27;2.97;;;2.50;;
66886;SDS011;67239;51.680;5.976;2023-04-24T00:06:55;4.05;;;2.63;;
66886;SDS011;67239;51.680;5.976;2023-04-24T00:09:23;2.65;;;2.40;;
66886;SDS011;67239;51.680;5.976;2023-04-24T00:11:51;2.58;;;2.22;;
66886;SDS011;67239;51.680;5.976;2023-04-24T00:14:19;5.35;;;2.08;;
66886;SDS011;67239;51.680;5.976;2023-04-24T00:16:46;4.70;;;2.72;;
66886;SDS011;67239;51.680;5.976;2023-04-24T00:19:13;3.78;;;3.38;;
66886;SDS011;67239;51.680;5.976;2023-04-24T00:21:40;5.90;;;3.58;;
66886;SDS011;67239;51.680;5.976;2023-04-24T00:24:08;7.75;;;4.47;;
66886;SDS011;67239;51.680;5.976;2023-04-24T00:26:35;6.22;;;4.38;;
66886;SDS011;67239;51.680;5.976;2023-04-24T00:29:02;6.22;;;4.80;;
66886;SDS011;67239;51.680;5.976;2023-04-24T00:31:29;7.65;;;4.95;;
66886;SDS011;67239;51.680;5.976;2023-04-24T00:33:57;7.10;;;5.70;;
66886;SDS011;67239;51.680;5.976;2023-04-24T00:36:24;8.25;;;6.22;;
66886;SDS011;67239;51.680;5.976;2023-04-24T00:38:51;7.93;;;5.72;;
66886;SDS011;67239;51.680;5.976;2023-04-24T00:41:19;7.80;;;6.50;;
66886;SDS011;67239;51.680;5.976;2023-04-24T00:43:47;10.13;;;6.63;;
66886;SDS011;67239;51.680;5.976;2023-04-24T00:46:14;10.38;;;7.18;;
66886;SDS011;67239;51.680;5.976;2023-04-24T00:48:43;10.48;;;6.95;;
66886;SDS011;67239;51.680;5.976;2023-04-24T00:51:10;10.68;;;6.35;;
66886;SDS011;67239;51.680;5.976;2023-04-24T00:53:37;9.02;;;6.93;;
66886;SDS011;67239;51.680;5.976;2023-04-24T00:56:05;8.65;;;7.18;;
66886;SDS011;67239;51.680;5.976;2023-04-24T00:58:32;10.63;;;8.23;;
66886;SDS011;67239;51.680;5.976;2023-04-24T01:00:59;10.48;;;8.10;;
66886;SDS011;67239;51.680;5.976;2023-04-24T01:03:29;13.18;;;8.30;;
66886;SDS011;67239;51.680;5.976;2023-04-24T01:05:58;11.30;;;8.48;;
66886;SDS011;67239;51.680;5.976;2023-04-24T01:08:26;11.65;;;8.52;;
66886;SDS011;67239;51.680;5.976;2023-04-24T01:10:56;14.82;;;9.50;;
66886;SDS011;67239;51.680;5.976;2023-04-24T01:13:24;17.30;;;8.85;;
66886;SDS011;67239;51.680;5.976;2023-04-24T01:15:51;15.35;;;9.80;;
66886;SDS011;67239;51.680;5.976;2023-04-24T01:18:18;14.80;;;9.80;;
66886;SDS011;67239;51.680;5.976;2023-04-24T01:20:49;14.75;;;9.63;;
66886;SDS011;67239;51.680;5.976;2023-04-24T01:23:20;15.27;;;10.02;;
66886;SDS011;67239;51.680;5.976;2023-04-24T01:25:48;12.07;;;9.32;;
66886;SDS011;67239;51.680;5.976;2023-04-24T01:28:17;13.65;;;10.10;;
66886;SDS011;67239;51.680;5.976;2023-04-24T01:30:46;15.32;;;10.52;;
66886;SDS011;67239;51.680;5.976;2023-04-24T01:33:13;14.93;;;10.80;;
66886;SDS011;67239;51.680;5.976;2023-04-24T01:35:41;18.00;;;10.82;;
66886;SDS011;67239;51.680;5.976;2023-04-24T01:38:09;16.98;;;10.70;;
66886;SDS011;67239;51.680;5.976;2023-04-24T01:40:36;16.13;;;10.93;;
66886;SDS011;67239;51.680;5.976;2023-04-24T01:43:03;15.10;;;11.00;;
66886;SDS011;67239;51.680;5.976;2023-04-24T01:45:30;15.40;;;11.60;;
66886;SDS011;67239;51.680;5.976;2023-04-24T01:47:57;16.70;;;11.23;;
66886;SDS011;67239;51.680;5.976;2023-04-24T01:50:25;17.45;;;11.38;;
66886;SDS011;67239;51.680;5.976;2023-04-24T01:52:52;17.52;;;11.38;;
66886;SDS011;67239;51.680;5.976;2023-04-24T01:55:19;15.77;;;11.70;;
66886;SDS011;67239;51.680;5.976;2023-04-24T01:57:46;16.08;;;11.15;;
66886;SDS011;67239;51.680;5.976;2023-04-24T02:00:14;20.63;;;11.73;;
66886;SDS011;67239;51.680;5.976;2023-04-24T02:02:41;17.40;;;12.15;;
66886;SDS011;67239;51.680;5.976;2023-04-24T02:05:13;20.52;;;12.13;;
66886;SDS011;67239;51.680;5.976;2023-04-24T02:07:40;21.20;;;11.90;;
66886;SDS011;67239;51.680;5.976;2023-04-24T02:10:08;17.85;;;12.30;;
66886;SDS011;67239;51.680;5.976;2023-04-24T02:12:41;17.08;;;12.73;;
66886;SDS011;67239;51.680;5.976;2023-04-24T02:15:08;21.88;;;13.65;;
66886;SDS011;67239;51.680;5.976;2023-04-24T02:17:36;19.77;;;12.95;;
66886;SDS011;67239;51.680;5.976;2023-04-24T02:20:05;20.48;;;14.40;;
66886;SDS011;67239;51.680;5.976;2023-04-24T02:22:33;18.08;;;13.52;;
66886;SDS011;67239;51.680;5.976;2023-04-24T02:25:01;18.75;;;13.65;;
66886;SDS011;67239;51.680;5.976;2023-04-24T02:27:28;25.40;;;15.18;;
66886;SDS011;67239;51.680;5.976;2023-04-24T02:29:56;18.58;;;13.82;;
66886;SDS011;67239;51.680;5.976;2023-04-24T02:32:25;20.30;;;14.45;;
66886;SDS011;67239;51.680;5.976;2023-04-24T02:34:52;25.90;;;14.98;;
66886;SDS011;67239;51.680;5.976;2023-04-24T02:37:19;23.67;;;14.60;;
66886;SDS011;67239;51.680;5.976;2023-04-24T02:39:46;21.23;;;14.50;;
66886;SDS011;67239;51.680;5.976;2023-04-24T02:42:14;23.65;;;14.90;;
66886;SDS011;67239;51.680;5.976;2023-04-24T02:44:41;20.08;;;14.55;;
66886;SDS011;67239;51.680;5.976;2023-04-24T02:47:09;20.48;;;14.55;;
66886;SDS011;67239;51.680;5.976;2023-04-24T02:49:36;24.40;;;14.98;;
66886;SDS011;67239;51.680;5.976;2023-04-24T02:52:04;22.63;;;15.43;;
66886;SDS011;67239;51.680;5.976;2023-04-24T02:54:31;24.02;;;16.15;;
66886;SDS011;67239;51.680;5.976;2023-04-24T02:56:58;21.92;;;15.57;;
66886;SDS011;67239;51.680;5.976;2023-04-24T02:59:25;23.70;;;15.95;;
66886;SDS011;67239;51.680;5.976;2023-04-24T03:01:53;22.70;;;15.70;;
66886;SDS011;67239;51.680;5.976;2023-04-24T03:04:21;23.85;;;16.38;;
66886;SDS011;67239;51.680;5.976;2023-04-24T03:06:49;21.83;;;15.32;;
66886;SDS011;67239;51.680;5.976;2023-04-24T03:09:22;21.35;;;15.57;;
66886;SDS011;67239;51.680;5.976;2023-04-24T03:11:50;22.63;;;15.82;;
66886;SDS011;67239;51.680;5.976;2023-04-24T03:14:18;25.58;;;15.75;;
66886;SDS011;67239;51.680;5.976;2023-04-24T03:16:45;24.70;;;15.60;;
66886;SDS011;67239;51.680;5.976;2023-04-24T03:19:12;22.55;;;15.95;;
66886;SDS011;67239;51.680;5.976;2023-04-24T03:21:53;24.40;;;15.93;;
66886;SDS011;67239;51.680;5.976;2023-04-24T03:24:20;20.58;;;14.95;;
66886;SDS011;67239;51.680;5.976;2023-04-24T03:26:48;21.58;;;15.52;;
66886;SDS011;67239;51.680;5.976;2023-04-24T03:29:27;21.58;;;15.10;;
66886;SDS011;67239;51.680;5.976;2023-04-24T03:31:56;22.48;;;15.55;;
66886;SDS011;67239;51.680;5.976;2023-04-24T03:34:24;26.33;;;15.82;;
66886;SDS011;67239;51.680;5.976;2023-04-24T03:36:51;23.88;;;15.40;;
66886;SDS011;67239;51.680;5.976;2023-04-24T03:39:19;22.40;;;15.90;;
66886;SDS011;67239;51.680;5.976;2023-04-24T03:41:52;22.15;;;14.98;;
66886;SDS011;67239;51.680;5.976;2023-04-24T03:44:25;20.10;;;14.90;;
66886;SDS011;67239;51.680;5.976;2023-04-24T03:46:52;22.20;;;15.45;;
66886;SDS011;67239;51.680;5.976;2023-04-24T03:49:22;20.90;;;15.15;;
66886;SDS011;67239;51.680;5.976;2023-04-24T03:51:49;23.92;;;14.95;;
66886;SDS011;67239;51.680;5.976;2023-04-24T03:54:21;23.02;;;14.80;;
66886;SDS011;67239;51.680;5.976;2023-04-24T03:56:50;20.73;;;14.57;;
66886;SDS011;67239;51.680;5.976;2023-04-24T03:59:17;23.17;;;15.23;;
66886;SDS011;67239;51.680;5.976;2023-04-24T04:01:51;22.23;;;15.45;;
66886;SDS011;67239;51.680;5.976;2023-04-24T04:04:18;21.65;;;14.80;;
66886;SDS011;67239;51.680;5.976;2023-04-24T04:06:46;18.85;;;14.27;;
66886;SDS011;67239;51.680;5.976;2023-04-24T04:09:13;21.42;;;14.35;;
66886;SDS011;67239;51.680;5.976;2023-04-24T04:11:41;18.63;;;13.50;;
66886;SDS011;67239;51.680;5.976;2023-04-24T04:14:08;23.80;;;13.32;;
66886;SDS011;67239;51.680;5.976;2023-04-24T04:16:39;20.48;;;13.77;;
66886;SDS011;67239;51.680;5.976;2023-04-24T04:19:07;19.92;;;12.77;;
66886;SDS011;67239;51.680;5.976;2023-04-24T04:21:35;18.67;;;13.13;;
66886;SDS011;67239;51.680;5.976;2023-04-24T04:24:10;22.55;;;13.73;;
66886;SDS011;67239;51.680;5.976;2023-04-24T04:26:42;17.15;;;12.75;;
66886;SDS011;67239;51.680;5.976;2023-04-24T04:29:21;20.33;;;12.88;;
66886;SDS011;67239;51.680;5.976;2023-04-24T04:31:50;19.30;;;12.65;;
66886;SDS011;67239;51.680;5.976;2023-04-24T04:34:17;18.88;;;12.45;;
66886;SDS011;67239;51.680;5.976;2023-04-24T04:36:45;18.00;;;12.30;;
66886;SDS011;67239;51.680;5.976;2023-04-24T04:39:25;18.10;;;11.88;;
66886;SDS011;67239;51.680;5.976;2023-04-24T04:42:05;19.10;;;12.50;;
66886;SDS011;67239;51.680;5.976;2023-04-24T04:44:38;19.45;;;12.85;;
66886;SDS011;67239;51.680;5.976;2023-04-24T04:47:09;16.58;;;12.40;;
66886;SDS011;67239;51.680;5.976;2023-04-24T04:49:38;18.95;;;11.65;;
66886;SDS011;67239;51.680;5.976;2023-04-24T04:52:10;17.65;;;12.10;;
66886;SDS011;67239;51.680;5.976;2023-04-24T04:54:37;15.88;;;11.82;;
66886;SDS011;67239;51.680;5.976;2023-04-24T04:57:05;15.70;;;11.02;;
66886;SDS011;67239;51.680;5.976;2023-04-24T04:59:35;17.02;;;10.90;;
66886;SDS011;67239;51.680;5.976;2023-04-24T05:02:06;13.25;;;10.25;;
66886;SDS011;67239;51.680;5.976;2023-04-24T05:04:33;13.00;;;10.13;;
66886;SDS011;67239;51.680;5.976;2023-04-24T05:07:01;15.25;;;9.80;;
66886;SDS011;67239;51.680;5.976;2023-04-24T05:09:31;14.65;;;10.18;;
66886;SDS011;67239;51.680;5.976;2023-04-24T05:12:03;13.18;;;9.30;;
66886;SDS011;67239;51.680;5.976;2023-04-24T05:14:35;14.10;;;9.25;;
66886;SDS011;67239;51.680;5.976;2023-04-24T05:17:02;13.27;;;9.23;;
66886;SDS011;67239;51.680;5.976;2023-04-24T05:19:30;13.38;;;8.85;;
66886;SDS011;67239;51.680;5.976;2023-04-24T05:21:59;13.07;;;9.10;;
66886;SDS011;67239;51.680;5.976;2023-04-24T05:24:30;14.30;;;9.35;;
66886;SDS011;67239;51.680;5.976;2023-04-24T05:27:10;12.13;;;8.95;;
66886;SDS011;67239;51.680;5.976;2023-04-24T05:29:39;12.23;;;8.73;;
66886;SDS011;67239;51.680;5.976;2023-04-24T05:32:08;12.52;;;8.55;;
66886;SDS011;67239;51.680;5.976;2023-04-24T05:34:35;12.43;;;8.73;;
66886;SDS011;67239;51.680;5.976;2023-04-24T05:37:05;12.02;;;8.55;;
66886;SDS011;67239;51.680;5.976;2023-04-24T05:39:35;12.95;;;8.43;;
66886;SDS011;67239;51.680;5.976;2023-04-24T05:42:03;12.18;;;8.52;;
66886;SDS011;67239;51.680;5.976;2023-04-24T05:44:31;12.00;;;8.38;;
66886;SDS011;67239;51.680;5.976;2023-04-24T05:46:59;9.80;;;7.93;;
66886;SDS011;67239;51.680;5.976;2023-04-24T05:49:26;10.60;;;8.18;;
66886;SDS011;67239;51.680;5.976;2023-04-24T05:51:56;11.98;;;8.50;;
66886;SDS011;67239;51.680;5.976;2023-04-24T05:54:24;11.85;;;8.85;;
66886;SDS011;67239;51.680;5.976;2023-04-24T05:56:51;10.75;;;8.20;;
66886;SDS011;67239;51.680;5.976;2023-04-24T05:59:31;10.07;;;7.93;;
66886;SDS011;67239;51.680;5.976;2023-04-24T06:01:58;11.38;;;7.95;;
66886;SDS011;67239;51.680;5.976;2023-04-24T06:04:25;10.90;;;7.95;;
66886;SDS011;67239;51.680;5.976;2023-04-24T06:06:52;10.35;;;7.88;;
66886;SDS011;67239;51.680;5.976;2023-04-24T06:09:22;9.45;;;7.75;;
66886;SDS011;67239;51.680;5.976;2023-04-24T06:11:50;10.85;;;6.97;;
66886;SDS011;67239;51.680;5.976;2023-04-24T06:14:24;8.65;;;6.57;;
66886;SDS011;67239;51.680;5.976;2023-04-24T06:17:13;8.13;;;6.47;;
66886;SDS011;67239;51.680;5.976;2023-04-24T06:19:41;6.93;;;5.75;;
66886;SDS011;67239;51.680;5.976;2023-04-24T06:22:08;6.38;;;4.80;;
66886;SDS011;67239;51.680;5.976;2023-04-24T06:24:36;7.53;;;5.72;;
66886;SDS011;67239;51.680;5.976;2023-04-24T06:27:03;11.93;;;5.80;;
66886;SDS011;67239;51.680;5.976;2023-04-24T06:29:31;8.48;;;5.45;;
66886;SDS011;67239;51.680;5.976;2023-04-24T06:32:00;6.22;;;5.10;;
66886;SDS011;67239;51.680;5.976;2023-04-24T06:34:27;6.47;;;5.55;;
66886;SDS011;67239;51.680;5.976;2023-04-24T06:36:54;7.85;;;5.35;;
66886;SDS011;67239;51.680;5.976;2023-04-24T06:39:21;5.78;;;5.07;;
66886;SDS011;67239;51.680;5.976;2023-04-24T06:41:48;6.25;;;5.32;;
66886;SDS011;67239;51.680;5.976;2023-04-24T06:44:19;5.20;;;4.40;;
66886;SDS011;67239;51.680;5.976;2023-04-24T06:46:49;6.07;;;4.40;;
66886;SDS011;67239;51.680;5.976;2023-04-24T06:49:16;5.68;;;4.25;;
66886;SDS011;67239;51.680;5.976;2023-04-24T06:51:43;6.32;;;4.18;;
66886;SDS011;67239;51.680;5.976;2023-04-24T06:54:10;5.18;;;3.90;;
66886;SDS011;67239;51.680;5.976;2023-04-24T06:56:37;5.25;;;3.70;;
66886;SDS011;67239;51.680;5.976;2023-04-24T06:59:04;5.10;;;3.22;;
66886;SDS011;67239;51.680;5.976;2023-04-24T07:01:31;3.17;;;2.83;;
66886;SDS011;67239;51.680;5.976;2023-04-24T07:03:58;4.03;;;2.13;;
66886;SDS011;67239;51.680;5.976;2023-04-24T07:06:26;2.58;;;1.60;;
66886;SDS011;67239;51.680;5.976;2023-04-24T07:08:53;1.42;;;1.00;;
66886;SDS011;67239;51.680;5.976;2023-04-24T07:11:21;1.30;;;1.05;;
66886;SDS011;67239;51.680;5.976;2023-04-24T07:13:48;1.75;;;1.17;;
66886;SDS011;67239;51.680;5.976;2023-04-24T07:16:15;1.63;;;1.05;;
66886;SDS011;67239;51.680;5.976;2023-04-24T07:18:43;4.28;;;1.25;;
66886;SDS011;67239;51.680;5.976;2023-04-24T07:21:10;1.63;;;0.95;;
66886;SDS011;67239;51.680;5.976;2023-04-24T07:23:37;0.82;;;0.70;;
66886;SDS011;67239;51.680;5.976;2023-04-24T07:26:05;1.67;;;1.13;;
66886;SDS011;67239;51.680;5.976;2023-04-24T07:28:32;1.33;;;0.70;;
66886;SDS011;67239;51.680;5.976;2023-04-24T07:30:59;1.38;;;0.90;;
66886;SDS011;67239;51.680;5.976;2023-04-24T07:33:26;3.80;;;0.80;;
66886;SDS011;67239;51.680;5.976;2023-04-24T07:35:54;2.22;;;0.90;;
66886;SDS011;67239;51.680;5.976;2023-04-24T07:38:21;3.58;;;1.10;;
66886;SDS011;67239;51.680;5.976;2023-04-24T07:40:48;2.75;;;1.08;;
66886;SDS011;67239;51.680;5.976;2023-04-24T07:43:16;1.10;;;0.95;;
66886;SDS011;67239;51.680;5.976;2023-04-24T07:45:43;2.45;;;1.10;;
66886;SDS011;67239;51.680;5.976;2023-04-24T07:48:10;2.00;;;1.35;;
66886;SDS011;67239;51.680;5.976;2023-04-24T07:50:40;3.17;;;1.33;;
66886;SDS011;67239;51.680;5.976;2023-04-24T07:53:07;2.20;;;1.48;;
66886;SDS011;67239;51.680;5.976;2023-04-24T07:55:34;3.40;;;1.92;;
66886;SDS011;67239;51.680;5.976;2023-04-24T07:58:01;3.53;;;2.92;;
66886;SDS011;67239;51.680;5.976;2023-04-24T08:00:29;6.22;;;5.00;;
66886;SDS011;67239;51.680;5.976;2023-04-24T08:02:56;10.32;;;6.22;;
66886;SDS011;67239;51.680;5.976;2023-04-24T08:05:23;9.60;;;7.47;;
66886;SDS011;67239;51.680;5.976;2023-04-24T08:07:52;11.43;;;7.93;;
66886;SDS011;67239;51.680;5.976;2023-04-24T08:10:20;14.65;;;9.07;;
66886;SDS011;67239;51.680;5.976;2023-04-24T08:12:49;13.98;;;8.70;;
66886;SDS011;67239;51.680;5.976;2023-04-24T08:15:16;14.73;;;9.43;;
66886;SDS011;67239;51.680;5.976;2023-04-24T08:17:43;18.60;;;9.48;;
66886;SDS011;67239;51.680;5.976;2023-04-24T08:20:11;13.23;;;8.95;;
66886;SDS011;67239;51.680;5.976;2023-04-24T08:22:40;18.15;;;8.95;;
66886;SDS011;67239;51.680;5.976;2023-04-24T08:25:09;15.73;;;8.80;;
66886;SDS011;67239;51.680;5.976;2023-04-24T08:27:37;17.13;;;9.85;;
66886;SDS011;67239;51.680;5.976;2023-04-24T08:30:06;14.18;;;8.23;;
66886;SDS011;67239;51.680;5.976;2023-04-24T08:32:33;17.85;;;9.13;;
66886;SDS011;67239;51.680;5.976;2023-04-24T08:35:00;14.95;;;8.65;;
66886;SDS011;67239;51.680;5.976;2023-04-24T08:37:27;14.55;;;7.82;;
66886;SDS011;67239;51.680;5.976;2023-04-24T08:39:55;14.55;;;8.90;;
66886;SDS011;67239;51.680;5.976;2023-04-24T08:42:22;12.52;;;7.90;;
66886;SDS011;67239;51.680;5.976;2023-04-24T08:44:50;12.88;;;7.68;;
66886;SDS011;67239;51.680;5.976;2023-04-24T08:47:17;12.63;;;8.00;;
66886;SDS011;67239;51.680;5.976;2023-04-24T08:49:47;15.52;;;8.25;;
66886;SDS011;67239;51.680;5.976;2023-04-24T08:52:16;17.63;;;8.98;;
66886;SDS011;67239;51.680;5.976;2023-04-24T08:54:45;17.73;;;9.07;;
66886;SDS011;67239;51.680;5.976;2023-04-24T08:57:14;21.33;;;8.90;;
66886;SDS011;67239;51.680;5.976;2023-04-24T08:59:41;21.77;;;9.40;;
66886;SDS011;67239;51.680;5.976;2023-04-24T09:02:10;19.35;;;8.23;;
66886;SDS011;67239;51.680;5.976;2023-04-24T09:04:39;22.38;;;9.20;;
66886;SDS011;67239;51.680;5.976;2023-04-24T09:07:08;20.05;;;7.53;;
66886;SDS011;67239;51.680;5.976;2023-04-24T09:09:38;15.73;;;6.50;;
66886;SDS011;67239;51.680;5.976;2023-04-24T09:12:08;15.02;;;5.38;;
66886;SDS011;67239;51.680;5.976;2023-04-24T09:14:36;17.42;;;6.05;;
66886;SDS011;67239;51.680;5.976;2023-04-24T09:17:09;16.63;;;6.05;;
66886;SDS011;67239;51.680;5.976;2023-04-24T09:19:36;15.63;;;5.90;;
66886;SDS011;67239;51.680;5.976;2023-04-24T09:22:06;17.98;;;5.78;;
66886;SDS011;67239;51.680;5.976;2023-04-24T09:24:35;22.60;;;5.80;;
66886;SDS011;67239;51.680;5.976;2023-04-24T09:27:03;14.75;;;5.47;;
66886;SDS011;67239;51.680;5.976;2023-04-24T09:29:30;18.08;;;5.53;;
66886;SDS011;67239;51.680;5.976;2023-04-24T09:31:59;13.52;;;4.97;;
66886;SDS011;67239;51.680;5.976;2023-04-24T09:34:48;14.50;;;4.75;;
66886;SDS011;67239;51.680;5.976;2023-04-24T09:37:28;14.75;;;4.70;;
66886;SDS011;67239;51.680;5.976;2023-04-24T09:40:30;16.25;;;4.85;;
66886;SDS011;67239;51.680;5.976;2023-04-24T09:42:53;15.77;;;4.65;;
66886;SDS011;67239;51.680;5.976;2023-04-24T09:45:36;15.30;;;4.00;;
66886;SDS011;67239;51.680;5.976;2023-04-24T09:48:08;17.63;;;4.20;;
66886;SDS011;67239;51.680;5.976;2023-04-24T09:50:37;11.40;;;3.50;;
66886;SDS011;67239;51.680;5.976;2023-04-24T09:53:05;10.48;;;3.28;;
66886;SDS011;67239;51.680;5.976;2023-04-24T09:55:42;10.50;;;2.83;;
66886;SDS011;67239;51.680;5.976;2023-04-24T09:58:12;11.57;;;3.17;;
66886;SDS011;67239;51.680;5.976;2023-04-24T10:00:39;11.30;;;3.05;;
66886;SDS011;67239;51.680;5.976;2023-04-24T10:03:07;10.13;;;2.97;;
66886;SDS011;67239;51.680;5.976;2023-04-24T10:05:35;10.70;;;2.75;;
66886;SDS011;67239;51.680;5.976;2023-04-24T10:08:04;12.35;;;2.85;;
66886;SDS011;67239;51.680;5.976;2023-04-24T10:10:35;12.38;;;3.22;;
66886;SDS011;67239;51.680;5.976;2023-04-24T10:13:08;12.35;;;2.55;;
66886;SDS011;67239;51.680;5.976;2023-04-24T10:15:37;12.60;;;2.80;;
66886;SDS011;67239;51.680;5.976;2023-04-24T10:18:05;12.45;;;2.53;;
66886;SDS011;67239;51.680;5.976;2023-04-24T10:20:34;5.60;;;1.80;;
66886;SDS011;67239;51.680;5.976;2023-04-24T10:23:03;6.60;;;1.70;;
66886;SDS011;67239;51.680;5.976;2023-04-24T10:25:32;10.90;;;2.80;;
66886;SDS011;67239;51.680;5.976;2023-04-24T10:28:01;8.02;;;2.00;;
66886;SDS011;67239;51.680;5.976;2023-04-24T10:30:33;7.40;;;2.10;;
66886;SDS011;67239;51.680;5.976;2023-04-24T10:33:06;8.38;;;1.92;;
66886;SDS011;67239;51.680;5.976;2023-04-24T10:35:40;7.95;;;2.10;;
66886;SDS011;67239;51.680;5.976;2023-04-24T10:38:11;7.20;;;2.50;;
66886;SDS011;67239;51.680;5.976;2023-04-24T10:40:41;7.47;;;2.20;;
66886;SDS011;67239;51.680;5.976;2023-04-24T10:43:10;8.98;;;1.88;;
66886;SDS011;67239;51.680;5.976;2023-04-24T10:45:38;5.45;;;1.75;;
66886;SDS011;67239;51.680;5.976;2023-04-24T10:48:08;7.47;;;2.47;;
66886;SDS011;67239;51.680;5.976;2023-04-24T10:50:47;8.05;;;2.22;;
66886;SDS011;67239;51.680;5.976;2023-04-24T10:53:19;7.72;;;2.20;;
66886;SDS011;67239;51.680;5.976;2023-04-24T10:55:57;10.18;;;1.70;;
66886;SDS011;67239;51.680;5.976;2023-04-24T10:58:37;6.90;;;1.88;;
66886;SDS011;67239;51.680;5.976;2023-04-24T11:01:29;9.93;;;2.55;;
66886;SDS011;67239;51.680;5.976;2023-04-24T11:04:00;6.57;;;1.88;;
66886;SDS011;67239;51.680;5.976;2023-04-24T11:06:33;5.75;;;1.92;;
66886;SDS011;67239;51.680;5.976;2023-04-24T11:09:04;3.80;;;1.50;;
66886;SDS011;67239;51.680;5.976;2023-04-24T11:11:35;4.18;;;1.33;;
66886;SDS011;67239;51.680;5.976;2023-04-24T11:14:06;4.80;;;1.00;;
66886;SDS011;67239;51.680;5.976;2023-04-24T11:21:42;3.80;;;1.17;;
66886;SDS011;67239;51.680;5.976;2023-04-24T11:27:11;4.13;;;1.17;;
66886;SDS011;67239;51.680;5.976;2023-04-24T11:29:43;6.43;;;1.23;;
66886;SDS011;67239;51.680;5.976;2023-04-24T11:32:25;3.65;;;1.00;;
66886;SDS011;67239;51.680;5.976;2023-04-24T11:35:01;4.18;;;1.00;;
66886;SDS011;67239;51.680;5.976;2023-04-24T11:40:06;3.70;;;1.40;;
66886;SDS011;67239;51.680;5.976;2023-04-24T11:42:37;4.15;;;1.15;;
66886;SDS011;67239;51.680;5.976;2023-04-24T11:45:13;6.68;;;1.20;;
66886;SDS011;67239;51.680;5.976;2023-04-24T11:47:43;5.57;;;1.00;;
66886;SDS011;67239;51.680;5.976;2023-04-24T11:50:12;7.75;;;1.50;;
66886;SDS011;67239;51.680;5.976;2023-04-24T11:52:42;6.57;;;1.27;;
66886;SDS011;67239;51.680;5.976;2023-04-24T11:57:44;3.03;;;1.10;;
66886;SDS011;67239;51.680;5.976;2023-04-24T12:00:18;3.28;;;1.13;;
66886;SDS011;67239;51.680;5.976;2023-04-24T12:02:47;2.85;;;1.10;;
66886;SDS011;67239;51.680;5.976;2023-04-24T12:10:20;2.60;;;1.00;;
66886;SDS011;67239;51.680;5.976;2023-04-24T12:12:50;3.08;;;1.23;;
66886;SDS011;67239;51.680;5.976;2023-04-24T12:15:18;3.30;;;1.10;;
66886;SDS011;67239;51.680;5.976;2023-04-24T12:17:47;3.47;;;1.13;;
66886;SDS011;67239;51.680;5.976;2023-04-24T12:20:17;4.28;;;1.63;;
66886;SDS011;67239;51.680;5.976;2023-04-24T12:22:57;3.05;;;1.05;;
66886;SDS011;67239;51.680;5.976;2023-04-24T12:25:31;6.05;;;1.42;;
66886;SDS011;67239;51.680;5.976;2023-04-24T12:30:30;4.78;;;1.25;;
66886;SDS011;67239;51.680;5.976;2023-04-24T12:32:59;3.83;;;1.17;;
66886;SDS011;67239;51.680;5.976;2023-04-24T12:35:30;4.97;;;1.30;;
66886;SDS011;67239;51.680;5.976;2023-04-24T12:38:10;3.88;;;1.15;;
66886;SDS011;67239;51.680;5.976;2023-04-24T12:40:40;4.03;;;1.40;;
66886;SDS011;67239;51.680;5.976;2023-04-24T12:43:19;3.72;;;1.05;;
66886;SDS011;67239;51.680;5.976;2023-04-24T12:45:47;5.10;;;1.42;;
66886;SDS011;67239;51.680;5.976;2023-04-24T12:48:14;8.35;;;1.60;;
66886;SDS011;67239;51.680;5.976;2023-04-24T12:50:42;4.82;;;1.05;;
66886;SDS011;67239;51.680;5.976;2023-04-24T12:53:13;3.42;;;0.90;;
66886;SDS011;67239;51.680;5.976;2023-04-24T12:55:41;3.80;;;1.40;;
66886;SDS011;67239;51.680;5.976;2023-04-24T12:58:08;4.28;;;0.93;;
66886;SDS011;67239;51.680;5.976;2023-04-24T13:00:35;2.83;;;0.98;;
66886;SDS011;67239;51.680;5.976;2023-04-24T13:03:04;7.05;;;1.40;;
66886;SDS011;67239;51.680;5.976;2023-04-24T13:05:31;4.90;;;1.00;;
66886;SDS011;67239;51.680;5.976;2023-04-24T13:07:58;4.25;;;1.10;;
66886;SDS011;67239;51.680;5.976;2023-04-24T13:10:25;6.18;;;1.20;;
66886;SDS011;67239;51.680;5.976;2023-04-24T13:12:52;4.57;;;1.55;;
66886;SDS011;67239;51.680;5.976;2023-04-24T13:15:19;5.82;;;1.42;;
66886;SDS011;67239;51.680;5.976;2023-04-24T13:17:46;4.95;;;1.38;;
66886;SDS011;67239;51.680;5.976;2023-04-24T13:20:13;7.43;;;2.00;;
66886;SDS011;67239;51.680;5.976;2023-04-24T13:22:40;5.30;;;1.30;;
66886;SDS011;67239;51.680;5.976;2023-04-24T13:25:07;5.20;;;1.67;;
66886;SDS011;67239;51.680;5.976;2023-04-24T13:27:37;5.57;;;1.70;;
66886;SDS011;67239;51.680;5.976;2023-04-24T13:30:06;7.00;;;1.30;;
66886;SDS011;67239;51.680;5.976;2023-04-24T13:32:33;5.38;;;1.45;;
66886;SDS011;67239;51.680;5.976;2023-04-24T13:35:02;7.38;;;1.63;;
66886;SDS011;67239;51.680;5.976;2023-04-24T13:37:29;3.80;;;1.67;;
66886;SDS011;67239;51.680;5.976;2023-04-24T13:39:56;6.05;;;1.48;;
66886;SDS011;67239;51.680;5.976;2023-04-24T13:42:23;2.70;;;1.08;;
66886;SDS011;67239;51.680;5.976;2023-04-24T13:44:51;2.83;;;1.00;;
66886;SDS011;67239;51.680;5.976;2023-04-24T13:47:19;2.78;;;0.93;;
66886;SDS011;67239;51.680;5.976;2023-04-24T13:49:46;3.08;;;0.85;;
66886;SDS011;67239;51.680;5.976;2023-04-24T13:52:13;7.05;;;1.48;;
66886;SDS011;67239;51.680;5.976;2023-04-24T13:54:40;5.78;;;1.45;;
66886;SDS011;67239;51.680;5.976;2023-04-24T13:57:07;2.28;;;1.20;;
66886;SDS011;67239;51.680;5.976;2023-04-24T13:59:34;2.88;;;1.02;;
66886;SDS011;67239;51.680;5.976;2023-04-24T14:02:01;3.83;;;1.30;;
66886;SDS011;67239;51.680;5.976;2023-04-24T14:04:28;2.67;;;1.27;;
66886;SDS011;67239;51.680;5.976;2023-04-24T14:06:55;5.28;;;1.40;;
66886;SDS011;67239;51.680;5.976;2023-04-24T14:09:22;3.75;;;1.42;;
66886;SDS011;67239;51.680;5.976;2023-04-24T14:11:49;5.32;;;1.88;;
66886;SDS011;67239;51.680;5.976;2023-04-24T14:14:18;4.22;;;1.40;;
66886;SDS011;67239;51.680;5.976;2023-04-24T14:16:45;2.78;;;1.50;;
66886;SDS011;67239;51.680;5.976;2023-04-24T14:19:12;2.83;;;1.30;;
66886;SDS011;67239;51.680;5.976;2023-04-24T14:21:39;7.22;;;1.83;;
66886;SDS011;67239;51.680;5.976;2023-04-24T14:24:06;4.32;;;1.23;;
66886;SDS011;67239;51.680;5.976;2023-04-24T14:26:34;3.33;;;1.38;;
66886;SDS011;67239;51.680;5.976;2023-04-24T14:29:01;4.07;;;1.80;;
66886;SDS011;67239;51.680;5.976;2023-04-24T14:31:40;5.50;;;1.80;;
66886;SDS011;67239;51.680;5.976;2023-04-24T14:34:08;3.50;;;1.30;;
66886;SDS011;67239;51.680;5.976;2023-04-24T14:36:36;5.85;;;1.48;;
66886;SDS011;67239;51.680;5.976;2023-04-24T14:39:04;4.28;;;1.23;;
66886;SDS011;67239;51.680;5.976;2023-04-24T14:41:34;5.43;;;1.23;;
66886;SDS011;67239;51.680;5.976;2023-04-24T14:44:03;5.07;;;1.83;;
66886;SDS011;67239;51.680;5.976;2023-04-24T14:46:30;7.13;;;1.67;;
66886;SDS011;67239;51.680;5.976;2023-04-24T14:48:58;4.82;;;1.60;;
66886;SDS011;67239;51.680;5.976;2023-04-24T14:51:25;4.90;;;1.40;;
66886;SDS011;67239;51.680;5.976;2023-04-24T14:53:52;3.78;;;1.38;;
66886;SDS011;67239;51.680;5.976;2023-04-24T14:56:19;4.00;;;1.55;;
66886;SDS011;67239;51.680;5.976;2023-04-24T14:58:46;5.63;;;1.95;;
66886;SDS011;67239;51.680;5.976;2023-04-24T15:01:13;5.13;;;1.67;;
66886;SDS011;67239;51.680;5.976;2023-04-24T15:03:42;2.45;;;1.42;;
66886;SDS011;67239;51.680;5.976;2023-04-24T15:06:11;5.50;;;1.90;;
66886;SDS011;67239;51.680;5.976;2023-04-24T15:08:39;4.13;;;1.65;;
66886;SDS011;67239;51.680;5.976;2023-04-24T15:11:06;8.18;;;2.00;;